METAR Data
IDs: Format: Raw Decoded Include TAF

Data at: 0233 UTC 29 Nov 2020

METAR for:KCIN (Carroll/Neu Arpt, IA, US)
Text:KCIN 290215Z AUTO 23013KT 10SM CLR 06/02 A2996 RMK AO2
Temperature: 6.0°C ( 43°F)
Dewpoint: 2.0°C ( 36°F) [RH = 75%]
Pressure (altimeter):29.96 inches Hg (1014.6 mb)
Winds:from the SW (230 degrees) at 15 MPH (13 knots; 6.7 m/s)
Visibility:10 or more sm (16+ km)
Ceiling:at least 12,000 feet AGL
Clouds:sky clear below 12,000 feet AGL
QC Flag:automated observation with no human augmentation